Nearby METAR Reports

(scroll for additional cities)

KPSP - Palm Springs, California, USA
Distance from station: WNW 7mi, 11km
Updated: Sat, 24-Jun-2017 11:53am PDT
Clear
Clear
 Wind from varies
Wind: varies 3 mph , 6 km/h
Temperature: 111°F , 44°C
Dew Point: 46°F , 8°C
Humidity: 11%
Barometer: 29.73 inHg , 1006.8 hPa
Clouds: Clear
Visibility: 10 miles , 16 km
2017/06/24 18:53 KPSP 241853Z VRB03KT 10SM CLR 44/08 A2973 RMK AO2 SLP060 T04390083
KTRM - Thermal/Palm Spg, California, USA
Distance from station: SE 16mi, 26km
Updated: Sat, 24-Jun-2017 11:52am PDT
Clear
Clear
 Wind from varies
Wind: varies 6 mph , 9 km/h
Temperature: 108°F , 42°C
Dew Point: 57°F , 14°C
Humidity: 19%
Barometer: 29.66 inHg , 1004.4 hPa
Clouds: Clear
Visibility: 10 miles , 16 km
2017/06/24 18:52 KTRM 241852Z AUTO VRB05KT 10SM CLR 42/14 A2966 RMK AO2 SLP047 T04170144
 
KNXP - Twentynine Palms, California, USA
Distance from station: NNE 37mi, 60km
Updated: Sat, 24-Jun-2017 11:56am PDT
Partly Cloudy
Partly Cloudy
 Wind from NNE
Wind: NNE 12 mph , 19 km/h
Temperature: 109°F , 43°C
Dew Point: 28°F , -2°C
Humidity: 6%
Barometer: 29.92 inHg , 1013.2 hPa
Clouds: Partly Cloudy
Visibility: 10 miles , 16 km
Cloud details: Few Clouds 8000 ft
Partly Cloudy 20000 ft
2017/06/24 18:56 KNXP 241856Z 02010KT 10SM FEW080 SCT200 43/M02 A2992 RMK AO2 SLP084 T04281022
KL35 - Big Bear City, California, USA
Distance from station: NW 43mi, 69km
Updated: Sat, 24-Jun-2017 11:55am PDT
Clear
Clear
 Wind from W
Wind: W 7 mph , 11 km/h
Temperature: 81°F , 27°C
Dew Point: 30°F , -1°C
Humidity: 16%
Barometer: 30.29 inHg , 1025.7 hPa
Clouds: Clear
Visibility: 10 miles , 16 km
2017/06/24 18:55 KL35 241855Z AUTO 27006KT 10SM CLR 27/M01 A3029 RMK AO2
 
KF70 - Murrieta/Temecula, California, USA
Distance from station: WSW 45mi, 73km
Updated: Sat, 24-Jun-2017 11:55am PDT
Clear
Clear
 Wind from SW
Wind: SW 8 mph , 13 km/h
Temperature: 81°F , 27°C
Heat Index: 82°F , 28°C
Dew Point: 61°F , 16°C
Humidity: 51%
Barometer: 29.91 inHg , 1012.9 hPa
Clouds: Clear
Visibility: 10 miles , 16 km
2017/06/24 18:55 KF70 241855Z AUTO 23007KT 10SM CLR 27/16 A2991 RMK AO1
KRIV - Riverside/March, California, USA
Distance from station: W 51mi, 82km
Updated: Sat, 24-Jun-2017 11:58am PDT
Clear
Clear
 Wind from WNW
Wind: WNW 9 mph , 15 km/h
Temperature: 88°F , 31°C
Dew Point: 59°F , 15°C
Humidity: 38%
Barometer: 29.90 inHg , 1012.5 hPa
Clouds: Clear
Visibility: 10 miles , 16 km
2017/06/24 18:58 KRIV 241858Z AUTO 29008KT 10SM CLR 31/15 A2990 RMK AO2 SLP111 T03100154
 
KSBD - San Bernardino, California, USA
Distance from station: WNW 54mi, 86km
Updated: Sat, 24-Jun-2017 11:50am PDT
Haze, Few clouds
Haze, Few clouds
 Wind from WSW
Wind: WSW 7 mph , 11 km/h
Temperature: 90°F , 32°C
Dew Point: 57°F , 14°C
Humidity: 33%
Barometer: 29.89 inHg , 1012.2 hPa
Summary: Haze
Clouds: Few Clouds
Visibility: 5 miles , 8 km
Cloud details: Few Clouds 12000 ft
2017/06/24 18:50 KSBD 241850Z 24006KT 5SM HZ FEW120 32/14 A2989
KRNM - Ramona, California, USA
Distance from station: SSW 60mi, 96km
Updated: Sat, 24-Jun-2017 11:53am PDT
Clear
Clear
 Wind from NW
Wind: NW 8 mph , 13 km/h
Temperature: 84°F , 29°C
Heat Index: 84°F , 29°C
Dew Point: 61°F , 16°C
Humidity: 45%
Barometer: 29.92 inHg , 1013.2 hPa
Clouds: Clear
Visibility: 10 miles , 16 km
2017/06/24 18:53 KRNM 241853Z 31007KT 10SM CLR 29/16 A2992 RMK AO2 SLP117 T02940156 $
 
KRAL - Riverside, California, USA
Distance from station: W 62mi, 100km
Updated: Sat, 24-Jun-2017 11:53am PDT
Clear
Clear
 Wind from W
Wind: W 7 mph , 11 km/h
Temperature: 84°F , 29°C
Heat Index: 85°F , 29°C
Dew Point: 63°F , 17°C
Humidity: 48%
Barometer: 29.88 inHg , 1011.9 hPa
Clouds: Clear
Visibility: 9 miles , 14 km
2017/06/24 18:53 KRAL 241853Z 27006KT 9SM CLR 29/17 A2988 RMK AO2 SLP102 T02940167
KOKB - Oceanside, California, USA
Distance from station: SW 68mi, 109km
Updated: Sat, 24-Jun-2017 11:52am PDT
Mostly Cloudy
Mostly Cloudy
 Wind from W
Wind: W 10 mph , 17 km/h
Temperature: 72°F , 22°C
Dew Point: 63°F , 17°C
Humidity: 73%
Barometer: 29.91 inHg , 1012.9 hPa
Clouds: Mostly Cloudy
Visibility: 9 miles , 14 km
Cloud details: Mostly Cloudy 1300 ft
2017/06/24 18:52 KOKB 241852Z AUTO 26009KT 9SM BKN013 22/17 A2991 RMK AO2 SLP129 T02220167
 
KONT - Ontario, California, USA
Distance from station: WNW 71mi, 114km
Updated: Sat, 24-Jun-2017 11:53am PDT
Few Clouds
Few Clouds
 Wind from WSW
Wind: WSW 10 mph , 17 km/h
Temperature: 84°F , 29°C
Heat Index: 84°F , 29°C
Dew Point: 59°F , 15°C
Humidity: 43%
Barometer: 29.89 inHg , 1012.2 hPa
Clouds: Few Clouds
Visibility: 10 miles , 16 km
Cloud details: Few Clouds 9500 ft
Few Clouds 22000 ft
2017/06/24 18:53 KONT 241853Z 24009KT 10SM FEW095 FEW220 29/15 A2989 RMK AO2 SLP104 ACC DSNT SW-W T02940150
KNJK - El Centro Naf, California, USA
Distance from station: SSE 78mi, 126km
Updated: Sat, 24-Jun-2017 11:56am PDT
Clear
Clear
 Wind from varies
Wind: varies 3 mph , 6 km/h
Temperature: 106°F , 41°C
Dew Point: 59°F , 15°C
Humidity: 22%
Barometer: 29.71 inHg , 1006.1 hPa
Clouds: Clear
Visibility: 10 miles , 16 km
2017/06/24 18:56 KNJK 241856Z AUTO VRB03KT 10SM CLR 41/15 A2971 RMK AO2 SLP075 T04060150 $
 
KSEE - San Diego/Santee, California, USA
Distance from station: SSW 74mi, 120km
Updated: Sat, 24-Jun-2017 11:47am PDT
Clear
Clear
 Wind from calm
Wind: Calm
Temperature: 81°F , 27°C
Heat Index: 82°F , 28°C
Dew Point: 61°F , 16°C
Humidity: 51%
Barometer: 29.89 inHg , 1012.2 hPa
Clouds: Clear
Visibility: 10 miles , 16 km
2017/06/24 18:47 KSEE 241847Z 00000KT 10SM SKC 27/16 A2989
KCNO - Chino, California, USA
Distance from station: W 72mi, 116km
Updated: Sat, 24-Jun-2017 11:53am PDT
Partly Cloudy
Partly Cloudy
 Wind from W
Wind: W 12 mph , 19 km/h
Temperature: 88°F , 31°C
Heat Index: 89°F , 32°C
Dew Point: 63°F , 17°C
Humidity: 43%
Barometer: 29.89 inHg , 1012.2 hPa
Clouds: Partly Cloudy
Visibility: 10 miles , 16 km
Cloud details: Partly Cloudy 20000 ft
2017/06/24 18:53 KCNO 241853Z 28010KT 10SM SCT200 31/17 A2989 RMK AO2 SLP115 T03110167